createdAt,value
2018-05-24T00:00:02.832Z,1038.3
2018-05-24T00:01:02.832Z,1038.29
2018-05-24T00:02:02.831Z,1038.31
2018-05-24T00:03:02.828Z,1038.35
2018-05-24T00:04:02.819Z,1038.38
2018-05-24T00:05:02.811Z,1038.35
2018-05-24T00:06:02.811Z,1038.35
2018-05-24T00:07:02.808Z,1038.39
2018-05-24T00:08:02.797Z,1038.42
2018-05-24T00:09:02.798Z,1038.41
2018-05-24T00:10:02.788Z,1038.44
2018-05-24T00:11:02.789Z,1038.45
2018-05-24T00:12:02.779Z,1038.47
2018-05-24T00:13:02.780Z,1038.48
2018-05-24T00:14:02.776Z,1038.48
2018-05-24T00:15:02.771Z,1038.48
2018-05-24T00:16:02.762Z,1038.49
2018-05-24T00:17:02.757Z,1038.48
2018-05-24T00:18:02.762Z,1038.46
2018-05-24T00:19:02.752Z,1038.44
2018-05-24T00:20:02.756Z,1038.46
2018-05-24T00:21:02.739Z,1038.49
2018-05-24T00:22:02.740Z,1038.46
2018-05-24T00:23:02.730Z,1038.45
2018-05-24T00:24:02.732Z,1038.47
2018-05-24T00:25:02.721Z,1038.47
2018-05-24T00:26:02.720Z,1038.52
2018-05-24T00:27:02.716Z,1038.53
2018-05-24T00:28:02.720Z,1038.52
2018-05-24T00:29:02.707Z,1038.48
2018-05-24T00:30:02.701Z,1038.49
2018-05-24T00:31:02.700Z,1038.52
2018-05-24T00:32:02.699Z,1038.47
2018-05-24T00:33:02.683Z,1038.53
2018-05-24T00:34:02.686Z,1038.5
2018-05-24T00:35:02.680Z,1038.56
2018-05-24T00:36:02.685Z,1038.47
2018-05-24T00:37:02.666Z,1038.53
2018-05-24T00:38:02.665Z,1038.54
2018-05-24T00:39:02.858Z,1038.55
2018-05-24T00:40:02.656Z,1038.51
2018-05-24T00:41:02.645Z,1038.55
2018-05-24T00:42:02.648Z,1038.56
2018-05-24T00:43:02.637Z,1038.55
2018-05-24T00:44:02.641Z,1038.55
2018-05-24T00:45:02.627Z,1038.6
2018-05-24T00:46:02.623Z,1038.64
2018-05-24T00:47:02.620Z,1038.65
2018-05-24T00:48:02.618Z,1038.67
2018-05-24T00:49:02.614Z,1038.69
2018-05-24T00:50:02.604Z,1038.72
2018-05-24T00:51:02.600Z,1038.76
2018-05-24T00:52:02.593Z,1038.77
2018-05-24T00:53:02.595Z,1038.77
2018-05-24T00:54:02.585Z,1038.8
2018-05-24T00:55:02.586Z,1038.8
2018-05-24T00:56:02.575Z,1038.79
2018-05-24T00:57:02.576Z,1038.84
2018-05-24T00:58:02.567Z,1038.85
2018-05-24T00:59:02.562Z,1038.83
2018-05-24T01:00:02.562Z,1038.84
2018-05-24T01:01:02.553Z,1038.84
2018-05-24T01:02:02.548Z,1038.84
2018-05-24T01:03:02.546Z,1038.84
2018-05-24T01:04:02.543Z,1038.82
2018-05-24T01:05:02.552Z,1038.84
2018-05-24T01:06:02.528Z,1038.84
2018-05-24T01:07:02.523Z,1038.9
2018-05-24T01:08:02.523Z,1038.93
2018-05-24T01:09:02.518Z,1038.97
2018-05-24T01:10:02.514Z,1038.98
2018-05-24T01:11:02.507Z,1039.01
2018-05-24T01:12:02.505Z,1039.03
2018-05-24T01:13:02.494Z,1039.05
2018-05-24T01:14:02.494Z,1039.08
2018-05-24T01:15:02.484Z,1039.06
2018-05-24T01:16:02.484Z,1039.07
2018-05-24T01:17:02.475Z,1039.12
2018-05-24T01:18:02.469Z,1039.14
2018-05-24T01:19:02.467Z,1039.15
2018-05-24T01:20:02.466Z,1039.13
2018-05-24T01:21:02.461Z,1039.16
2018-05-24T01:22:02.452Z,1039.19
2018-05-24T01:23:02.443Z,1039.2
2018-05-24T01:24:02.448Z,1039.17
2018-05-24T01:25:02.433Z,1039.2
2018-05-24T01:26:02.446Z,1039.15
2018-05-24T01:27:02.425Z,1039.19
2018-05-24T01:28:02.422Z,1039.2
2018-05-24T01:29:02.412Z,1039.19
2018-05-24T01:30:02.413Z,1039.24
2018-05-24T01:31:02.402Z,1039.28
2018-05-24T01:32:02.406Z,1039.3
2018-05-24T01:33:02.391Z,1039.28
2018-05-24T01:34:02.389Z,1039.28
2018-05-24T01:35:02.381Z,1039.28
2018-05-24T01:36:02.380Z,1039.31
2018-05-24T01:37:02.379Z,1039.35
2018-05-24T01:38:02.365Z,1039.31
2018-05-24T01:39:02.359Z,1039.37
2018-05-24T01:40:02.355Z,1039.37
2018-05-24T01:41:02.355Z,1039.32
2018-05-24T01:42:02.345Z,1039.4
2018-05-24T01:43:02.343Z,1039.39
2018-05-24T01:44:02.333Z,1039.35
2018-05-24T01:45:02.333Z,1039.34
2018-05-24T01:46:02.327Z,1039.36
2018-05-24T01:47:02.322Z,1039.38
2018-05-24T01:48:02.312Z,1039.35
2018-05-24T01:49:02.316Z,1039.4
2018-05-24T01:50:02.301Z,1039.38
2018-05-24T01:51:02.301Z,1039.36
2018-05-24T01:52:02.296Z,1039.38
2018-05-24T01:53:02.295Z,1039.34
2018-05-24T01:54:02.292Z,1039.37
2018-05-24T01:55:02.275Z,1039.29
2018-05-24T01:56:02.271Z,1039.3
2018-05-24T01:57:02.268Z,1039.31
2018-05-24T01:58:02.258Z,1039.26
2018-05-24T01:59:02.257Z,1039.25
2018-05-24T02:00:02.247Z,1039.24
2018-05-24T02:01:02.247Z,1039.24
2018-05-24T02:02:02.238Z,1039.24
2018-05-24T02:03:02.236Z,1039.27
2018-05-24T02:04:02.225Z,1039.28
2018-05-24T02:05:02.227Z,1039.25
2018-05-24T02:06:02.218Z,1039.25
2018-05-24T02:07:02.213Z,1039.24
2018-05-24T02:08:02.214Z,1039.25
2018-05-24T02:09:02.196Z,1039.25
2018-05-24T02:10:02.197Z,1039.28
2018-05-24T02:11:02.190Z,1039.25
2018-05-24T02:12:02.184Z,1039.23
2018-05-24T02:13:02.174Z,1039.27
2018-05-24T02:14:02.173Z,1039.31
2018-05-24T02:15:02.171Z,1039.29
2018-05-24T02:16:02.158Z,1039.3
2018-05-24T02:17:02.161Z,1039.3
2018-05-24T02:18:02.146Z,1039.31
2018-05-24T02:19:02.145Z,1039.29
2018-05-24T02:20:02.135Z,1039.26
2018-05-24T02:21:02.134Z,1039.3
2018-05-24T02:22:02.129Z,1039.26
2018-05-24T02:23:02.123Z,1039.24
2018-05-24T02:24:02.112Z,1039.24
2018-05-24T02:25:02.107Z,1039.19
2018-05-24T02:26:02.107Z,1039.19
2018-05-24T02:27:02.100Z,1039.17
2018-05-24T02:28:02.094Z,1039.18
2018-05-24T02:29:02.141Z,1039.17
2018-05-24T02:30:02.084Z,1039.14
2018-05-24T02:31:02.073Z,1039.15
2018-05-24T02:32:02.073Z,1039.1
2018-05-24T02:33:02.064Z,1039.09
2018-05-24T02:34:02.061Z,1039.13
2018-05-24T02:35:02.054Z,1039.16
2018-05-24T02:36:02.180Z,1039.11
2018-05-24T02:37:02.039Z,1039.05
2018-05-24T02:38:02.035Z,1039.01
2018-05-24T02:39:02.030Z,1039.03
2018-05-24T02:40:02.038Z,1039.05
2018-05-24T02:41:02.015Z,1039.09
2018-05-24T02:42:02.015Z,1039.1
2018-05-24T02:43:02.010Z,1039.07
2018-05-24T02:44:02.007Z,1039.07
2018-05-24T02:45:01.993Z,1039.1
2018-05-24T02:46:02.001Z,1039.07
2018-05-24T02:47:01.981Z,1039.1
2018-05-24T02:48:01.986Z,1039.04
2018-05-24T02:49:01.970Z,1039.01
2018-05-24T02:50:01.978Z,1039.01
2018-05-24T02:51:01.961Z,1039.04
2018-05-24T02:52:01.957Z,1039.06
2018-05-24T02:53:01.955Z,1039.08
2018-05-24T02:54:01.947Z,1039.05
2018-05-24T02:55:01.941Z,1039.06
2018-05-24T02:56:01.931Z,1039.09
2018-05-24T02:57:02.176Z,1039.08
2018-05-24T02:58:01.924Z,1039.1
2018-05-24T02:59:01.919Z,1039.06
2018-05-24T03:00:01.915Z,1039.08
2018-05-24T03:01:01.938Z,1039.06
2018-05-24T03:02:01.900Z,1039.05
2018-05-24T03:03:01.892Z,1039.06
2018-05-24T03:04:01.906Z,1039.04
2018-05-24T03:05:01.877Z,1039.03
2018-05-24T03:06:01.880Z,1039.04
2018-05-24T03:07:01.871Z,1038.99
2018-05-24T03:08:01.863Z,1038.98
2018-05-24T03:09:01.864Z,1038.97
2018-05-24T03:10:01.866Z,1038.98
2018-05-24T03:11:01.849Z,1038.99
2018-05-24T03:12:01.838Z,1038.96
2018-05-24T03:13:01.836Z,1038.96
2018-05-24T03:14:01.831Z,1038.94
2018-05-24T03:15:01.844Z,1038.9
2018-05-24T03:16:01.820Z,1038.95
2018-05-24T03:17:01.810Z,1038.87
2018-05-24T03:18:01.808Z,1038.85
2018-05-24T03:19:01.797Z,1038.82
2018-05-24T03:20:01.800Z,1038.86
2018-05-24T03:21:01.786Z,1038.81
2018-05-24T03:22:01.786Z,1038.82
2018-05-24T03:23:01.774Z,1038.77
2018-05-24T03:24:01.774Z,1038.75
2018-05-24T03:25:01.763Z,1038.72
2018-05-24T03:26:01.757Z,1038.65
2018-05-24T03:27:01.752Z,1038.66
2018-05-24T03:28:02.002Z,1038.61
2018-05-24T03:29:01.746Z,1038.59
2018-05-24T03:30:01.743Z,1038.53
2018-05-24T03:31:01.734Z,1038.44
2018-05-24T03:32:01.734Z,1038.42
2018-05-24T03:33:01.718Z,1038.38
2018-05-24T03:34:01.719Z,1038.29
2018-05-24T03:35:01.711Z,1038.29
2018-05-24T03:36:01.707Z,1038.25
2018-05-24T03:37:01.702Z,1038.04
2018-05-24T03:38:01.698Z,1037.94
2018-05-24T03:39:01.690Z,1037.75
2018-05-24T03:40:01.687Z,1037.55
2018-05-24T03:41:01.677Z,1037.39
2018-05-24T03:42:01.672Z,1037.23
2018-05-24T03:43:01.669Z,1037.07
2018-05-24T03:44:01.667Z,1036.89
2018-05-24T03:45:01.664Z,1036.77
2018-05-24T03:46:01.655Z,1036.59
2018-05-24T03:47:01.648Z,1036.52
2018-05-24T03:48:01.645Z,1036.45
2018-05-24T03:49:01.648Z,1036.4
2018-05-24T03:50:01.637Z,1036.36
2018-05-24T03:51:01.639Z,1036.31
2018-05-24T03:52:01.732Z,1036.33
2018-05-24T03:53:01.630Z,1036.35
2018-05-24T03:54:01.626Z,1036.29
2018-05-24T03:55:01.624Z,1036.28
2018-05-24T03:56:01.626Z,1036.2
2018-05-24T03:57:01.618Z,1036.1
2018-05-24T03:58:01.609Z,1036.01
2018-05-24T03:59:01.611Z,1035.83
2018-05-24T04:00:01.609Z,1035.69
2018-05-24T04:01:01.607Z,1035.54
2018-05-24T04:02:01.598Z,1035.43
2018-05-24T04:03:01.596Z,1035.35
2018-05-24T04:04:01.596Z,1035.29
2018-05-24T04:05:01.598Z,1035.26
2018-05-24T04:06:01.590Z,1035.28
2018-05-24T04:07:01.593Z,1035.15
2018-05-24T04:08:01.586Z,1035.12
2018-05-24T04:09:01.590Z,1035.17
2018-05-24T04:10:01.584Z,1035.12
2018-05-24T04:11:01.588Z,1035.08
2018-05-24T04:12:01.607Z,1035.13
2018-05-24T04:13:01.586Z,1035.08
2018-05-24T04:14:01.586Z,1035.04
2018-05-24T04:15:01.583Z,1035.05
2018-05-24T04:16:01.576Z,1035.09
2018-05-24T04:17:01.576Z,1035.3
2018-05-24T04:18:01.580Z,1035.51
2018-05-24T04:19:01.581Z,1035.63
2018-05-24T04:20:01.579Z,1035.71
2018-05-24T04:21:01.576Z,1035.69
2018-05-24T04:22:01.578Z,1035.77
2018-05-24T04:23:01.581Z,1035.75
2018-05-24T04:24:01.570Z,1035.82
2018-05-24T04:25:01.575Z,1035.84
2018-05-24T04:26:01.569Z,1035.87
2018-05-24T04:27:01.635Z,1035.9
2018-05-24T04:28:01.567Z,1036.01
2018-05-24T04:29:01.571Z,1036.04
2018-05-24T04:30:01.572Z,1036.2
2018-05-24T04:31:01.568Z,1036.19
2018-05-24T04:32:01.563Z,1036.36
2018-05-24T04:33:01.678Z,1036.43
2018-05-24T04:34:01.566Z,1036.51
2018-05-24T04:35:01.564Z,1036.63
2018-05-24T04:36:01.563Z,1036.71
2018-05-24T04:37:01.557Z,1036.71
2018-05-24T04:38:01.559Z,1036.71
2018-05-24T04:39:01.554Z,1036.77
2018-05-24T04:40:01.557Z,1036.72
2018-05-24T04:41:01.557Z,1036.75
2018-05-24T04:42:01.553Z,1036.76
2018-05-24T04:43:01.546Z,1036.78
2018-05-24T04:44:01.550Z,1036.74
2018-05-24T04:45:01.543Z,1036.71
2018-05-24T04:46:01.541Z,1036.68
2018-05-24T04:47:01.544Z,1036.57
2018-05-24T04:48:01.548Z,1036.48
2018-05-24T04:49:01.534Z,1036.42
2018-05-24T04:50:01.544Z,1036.44
2018-05-24T04:51:01.536Z,1036.46
2018-05-24T04:52:01.536Z,1036.41
2018-05-24T04:53:01.526Z,1036.32
2018-05-24T04:54:01.533Z,1036.27
2018-05-24T04:55:01.524Z,1036.28
2018-05-24T04:56:01.526Z,1036.34
2018-05-24T04:57:01.518Z,1036.3
2018-05-24T04:58:01.522Z,1036.17
2018-05-24T04:59:01.515Z,1036.16
2018-05-24T05:00:01.518Z,1036.26
2018-05-24T05:01:01.512Z,1036.23
2018-05-24T05:02:01.520Z,1036.24
2018-05-24T05:03:01.516Z,1036.11
2018-05-24T05:04:01.511Z,1036.04
2018-05-24T05:05:01.513Z,1035.99
2018-05-24T05:06:01.505Z,1036
2018-05-24T05:07:01.504Z,1035.89
2018-05-24T05:08:01.500Z,1035.72
2018-05-24T05:09:01.509Z,1035.57
2018-05-24T05:10:01.497Z,1035.23
2018-05-24T05:11:01.500Z,1034.97
2018-05-24T05:12:01.494Z,1034.88
2018-05-24T05:13:01.500Z,1034.9
2018-05-24T05:14:01.492Z,1034.88
2018-05-24T05:15:01.491Z,1034.71
2018-05-24T05:16:01.496Z,1034.49
2018-05-24T05:17:01.490Z,1034.45
2018-05-24T05:18:01.490Z,1034.45
2018-05-24T05:19:01.493Z,1034.59
2018-05-24T05:20:01.495Z,1034.76
2018-05-24T05:21:01.499Z,1034.83
2018-05-24T05:22:01.490Z,1034.66
2018-05-24T05:23:01.506Z,1034.43
2018-05-24T05:24:01.491Z,1034.11
2018-05-24T05:25:01.500Z,1033.99
2018-05-24T05:26:01.493Z,1033.75
2018-05-24T05:27:01.499Z,1034.01
2018-05-24T05:28:01.496Z,1034.16
2018-05-24T05:29:01.502Z,1034.1
2018-05-24T05:30:01.498Z,1033.83
2018-05-24T05:31:01.507Z,1033.73
2018-05-24T05:32:01.568Z,1033.58
2018-05-24T05:33:01.510Z,1033.19
2018-05-24T05:34:01.513Z,1033.15
2018-05-24T05:35:01.516Z,1033.24
2018-05-24T05:36:01.518Z,1033.43
2018-05-24T05:37:01.516Z,1033.67
2018-05-24T05:38:01.539Z,1033.36
2018-05-24T05:39:01.530Z,1033.12
2018-05-24T05:40:01.528Z,1033.01
2018-05-24T05:41:01.537Z,1032.92
2018-05-24T05:42:01.537Z,1032.88
2018-05-24T05:43:01.547Z,1032.9
2018-05-24T05:44:01.549Z,1033.02
2018-05-24T05:45:01.557Z,1033.1
2018-05-24T05:46:01.558Z,1032.99
2018-05-24T05:47:01.567Z,1032.95
2018-05-24T05:48:01.575Z,1033.15
2018-05-24T05:49:01.578Z,1032.7
2018-05-24T05:50:01.585Z,1032.65
2018-05-24T05:51:01.590Z,1033.26
2018-05-24T05:52:01.623Z,1034.04
2018-05-24T05:53:01.596Z,1033.88
2018-05-24T05:54:01.607Z,1033.47
2018-05-24T05:55:01.613Z,1033.03
2018-05-24T05:56:01.623Z,1032.6
2018-05-24T05:57:01.620Z,1033.11
2018-05-24T05:58:01.632Z,1033.54
2018-05-24T05:59:01.631Z,1033.67
2018-05-24T06:00:01.642Z,1033.92
2018-05-24T06:01:01.643Z,1033.99
2018-05-24T06:02:01.746Z,1033.93
2018-05-24T06:03:01.655Z,1033.59
2018-05-24T06:04:01.918Z,1033.29
2018-05-24T06:05:01.671Z,1032.88
2018-05-24T06:06:01.679Z,1033.2
2018-05-24T06:07:01.683Z,1033.27
2018-05-24T06:08:01.684Z,1033.07
2018-05-24T06:09:01.689Z,1032.92
2018-05-24T06:10:01.703Z,1032.64
2018-05-24T06:11:01.712Z,1032.28
2018-05-24T06:12:01.714Z,1032.16
2018-05-24T06:13:01.715Z,1032.35
2018-05-24T06:14:01.728Z,1032.36
2018-05-24T06:15:01.736Z,1031.89
2018-05-24T06:16:01.741Z,1031.78
2018-05-24T06:17:01.742Z,1031.88
2018-05-24T06:18:01.755Z,1031.65
2018-05-24T06:19:01.764Z,1031.38
2018-05-24T06:20:01.765Z,1031.51
2018-05-24T06:21:01.778Z,1031.72
2018-05-24T06:22:01.786Z,1031.92
2018-05-24T06:23:01.794Z,1031.63
2018-05-24T06:24:01.797Z,1031.48
2018-05-24T06:25:01.805Z,1031.16
2018-05-24T06:26:01.826Z,1031.02
2018-05-24T06:27:01.831Z,1030.83
2018-05-24T06:28:01.840Z,1030.81
2018-05-24T06:29:01.879Z,1030.71
2018-05-24T06:30:01.861Z,1030.64
2018-05-24T06:31:01.865Z,1030.57
2018-05-24T06:32:01.875Z,1030.44
2018-05-24T06:33:01.884Z,1030.43
2018-05-24T06:35:02.200Z,1030.43
2018-05-24T06:36:01.915Z,1030.22
2018-05-24T06:37:01.921Z,1030.03
2018-05-24T06:38:01.935Z,1029.91
2018-05-24T06:39:01.946Z,1029.84
2018-05-24T06:40:01.957Z,1029.81
2018-05-24T06:41:01.962Z,1030.07
2018-05-24T06:42:01.973Z,1030.33
2018-05-24T06:43:01.989Z,1030.63
2018-05-24T06:44:02.005Z,1030.77
2018-05-24T06:45:02.015Z,1031
2018-05-24T06:46:02.018Z,1031.04
2018-05-24T06:47:02.037Z,1031
2018-05-24T06:48:02.040Z,1031.06
2018-05-24T06:49:02.056Z,1031.14
2018-05-24T06:50:02.060Z,1031.18
2018-05-24T06:51:02.077Z,1031.21
2018-05-24T06:52:02.083Z,1031.14
2018-05-24T06:53:02.103Z,1031.13
2018-05-24T06:54:02.105Z,1031.07
2018-05-24T06:55:02.126Z,1031.1
2018-05-24T06:56:02.130Z,1031.03
2018-05-24T06:57:02.143Z,1030.92
2018-05-24T06:58:02.146Z,1030.81
2018-05-24T06:59:02.164Z,1030.71
2018-05-24T07:00:02.268Z,1030.75
2018-05-24T07:01:02.185Z,1030.67
2018-05-24T07:02:02.193Z,1030.67
2018-05-24T07:03:02.206Z,1030.73
2018-05-24T07:04:02.211Z,1030.67
2018-05-24T07:05:02.229Z,1030.74
2018-05-24T07:06:02.539Z,1030.64
2018-05-24T07:07:02.249Z,1030.73
2018-05-24T07:08:02.258Z,1031.09
2018-05-24T07:09:02.269Z,1031.37
2018-05-24T07:10:02.276Z,1031.82
2018-05-24T07:11:02.318Z,1032.18
2018-05-24T07:12:02.301Z,1032.42
2018-05-24T07:13:02.311Z,1032.44
2018-05-24T07:14:02.323Z,1032.47
2018-05-24T07:15:02.329Z,1032.59
2018-05-24T07:16:02.341Z,1032.49
2018-05-24T07:17:02.354Z,1032.43
2018-05-24T07:18:02.361Z,1032.19
2018-05-24T07:19:02.364Z,1032.03
2018-05-24T07:20:02.380Z,1031.86
2018-05-24T07:21:02.384Z,1031.8
2018-05-24T07:22:02.399Z,1031.57
2018-05-24T07:23:02.407Z,1031.51
2018-05-24T07:24:02.418Z,1031.4
2018-05-24T07:25:02.427Z,1031.09
2018-05-24T07:26:02.431Z,1030.89
2018-05-24T07:27:02.448Z,1030.76
2018-05-24T07:28:02.459Z,1030.73
2018-05-24T07:29:02.467Z,1030.72
2018-05-24T07:30:02.479Z,1030.54
2018-05-24T07:31:02.482Z,1030.53
2018-05-24T07:32:02.499Z,1030.7
2018-05-24T07:33:02.511Z,1030.62
2018-05-24T07:34:02.518Z,1030.6
2018-05-24T07:35:02.541Z,1030.54
2018-05-24T07:36:02.557Z,1030.39
2018-05-24T07:37:02.548Z,1030.37
2018-05-24T07:38:02.562Z,1030.44
2018-05-24T07:39:02.582Z,1030.41
2018-05-24T07:40:02.580Z,1030.36
2018-05-24T07:41:02.605Z,1030.37
2018-05-24T07:42:02.613Z,1030.39
2018-05-24T07:43:02.634Z,1030.44
2018-05-24T07:44:02.639Z,1030.37
2018-05-24T07:45:02.734Z,1030.37
2018-05-24T07:46:02.659Z,1030.31
2018-05-24T07:47:02.676Z,1030.22
2018-05-24T07:48:02.684Z,1030.26
2018-05-24T07:49:02.692Z,1030.22
2018-05-24T07:50:02.708Z,1030.19
2018-05-24T07:51:02.718Z,1030
2018-05-24T07:52:02.735Z,1029.84
2018-05-24T07:53:02.740Z,1029.84
2018-05-24T07:54:02.760Z,1029.75
2018-05-24T07:55:02.771Z,1029.63
2018-05-24T07:56:02.771Z,1029.56
2018-05-24T07:57:02.779Z,1029.6
2018-05-24T07:58:03.194Z,1029.55
2018-05-24T07:59:02.818Z,1029.55
2018-05-24T08:00:02.813Z,1029.51
2018-05-24T08:01:02.823Z,1029.39
2018-05-24T08:02:02.862Z,1029.33
2018-05-24T08:03:02.849Z,1029.34
2018-05-24T08:04:02.873Z,1029.42
2018-05-24T08:05:03.076Z,1029.32
2018-05-24T08:06:02.882Z,1029.21
2018-05-24T08:07:02.911Z,1029.18
2018-05-24T08:08:02.916Z,1029.12
2018-05-24T08:09:02.924Z,1029.19
2018-05-24T08:10:02.928Z,1029.06
2018-05-24T08:11:02.933Z,1028.98
2018-05-24T08:12:02.946Z,1028.99
2018-05-24T08:13:02.962Z,1028.94
2018-05-24T08:14:02.976Z,1028.89
2018-05-24T08:15:02.982Z,1028.9
2018-05-24T08:16:02.999Z,1028.8
2018-05-24T08:17:03.010Z,1028.76
2018-05-24T08:18:03.032Z,1028.81
2018-05-24T08:19:03.030Z,1028.98
2018-05-24T08:20:03.050Z,1029.21
2018-05-24T08:21:03.060Z,1029.47
2018-05-24T08:22:03.077Z,1029.51
2018-05-24T08:23:03.080Z,1029.35
2018-05-24T08:24:03.095Z,1029.24
2018-05-24T08:25:03.100Z,1029.01
2018-05-24T08:26:03.117Z,1028.94
2018-05-24T08:27:03.137Z,1028.78
2018-05-24T08:28:03.136Z,1028.7
2018-05-24T08:29:03.148Z,1028.78
2018-05-24T08:30:03.171Z,1028.79
2018-05-24T08:31:03.181Z,1028.71
2018-05-24T08:32:03.183Z,1028.72
2018-05-24T08:33:03.196Z,1028.68
2018-05-24T08:34:03.216Z,1028.78
2018-05-24T08:35:03.270Z,1029.09
2018-05-24T08:36:03.235Z,1029.27
2018-05-24T08:37:03.247Z,1029.33
2018-05-24T08:38:03.254Z,1029.68
2018-05-24T08:39:03.272Z,1029.65
2018-05-24T08:40:03.277Z,1029.86
2018-05-24T08:41:03.288Z,1029.79
2018-05-24T08:42:03.306Z,1029.75
2018-05-24T08:43:03.312Z,1029.55
2018-05-24T08:44:03.322Z,1029.32
2018-05-24T08:45:03.333Z,1029.45
2018-05-24T08:46:03.351Z,1029.67
2018-05-24T08:47:03.379Z,1030.33
2018-05-24T08:48:03.373Z,1031.09
2018-05-24T08:49:03.380Z,1031.72
2018-05-24T08:50:03.400Z,1032.27
2018-05-24T08:51:03.411Z,1032.63
2018-05-24T08:52:03.410Z,1032.98
2018-05-24T08:53:03.426Z,1033.3
2018-05-24T08:54:03.430Z,1033.39
2018-05-24T08:55:03.445Z,1033.7
2018-05-24T08:56:03.448Z,1033.88
2018-05-24T08:57:03.463Z,1034.02
2018-05-24T08:58:03.466Z,1034.12
2018-05-24T08:59:03.488Z,1034.18
2018-05-24T09:00:03.487Z,1034.33
2018-05-24T09:01:03.500Z,1034.43
2018-05-24T09:02:03.500Z,1034.45
2018-05-24T09:03:03.513Z,1034.41
2018-05-24T09:04:03.517Z,1034.58
2018-05-24T09:05:03.522Z,1034.71
2018-05-24T09:06:03.524Z,1034.63
2018-05-24T09:07:03.536Z,1034.66
2018-05-24T09:08:03.537Z,1034.73
2018-05-24T09:09:03.643Z,1034.69
2018-05-24T09:10:03.550Z,1034.82
2018-05-24T09:11:03.561Z,1035.02
2018-05-24T09:12:03.567Z,1035.19
2018-05-24T09:13:03.591Z,1034.86
2018-05-24T09:14:03.576Z,1034.97
2018-05-24T09:15:03.580Z,1035.09
2018-05-24T09:16:03.589Z,1035.02
2018-05-24T09:17:03.590Z,1035.36
2018-05-24T09:18:03.589Z,1035.17
2018-05-24T09:19:03.603Z,1035.31
2018-05-24T09:20:03.663Z,1035.17
2018-05-24T09:21:03.612Z,1035.36
2018-05-24T09:22:03.610Z,1035.76
2018-05-24T09:23:03.608Z,1035.41
2018-05-24T09:24:03.618Z,1035.33
2018-05-24T09:25:03.621Z,1035.32
2018-05-24T09:26:03.625Z,1035.35
2018-05-24T09:27:03.623Z,1035.29
2018-05-24T09:29:03.641Z,1035.41
2018-05-24T09:30:03.648Z,1035.46
2018-05-24T09:31:03.641Z,1035.42
2018-05-24T09:32:03.640Z,1035.33
2018-05-24T09:33:03.644Z,1035.31
2018-05-24T09:34:03.649Z,1035.32
2018-05-24T09:36:03.665Z,1035.35
2018-05-24T09:37:03.653Z,1035.47
2018-05-24T09:38:03.661Z,1035.38
2018-05-24T09:39:03.669Z,1035.38
2018-05-24T09:40:03.678Z,1035.34
2018-05-24T09:41:03.662Z,1035.2
2018-05-24T09:42:03.772Z,1035.17
2018-05-24T09:43:03.667Z,1035.13
2018-05-24T09:44:03.682Z,1035.24
2018-05-24T09:45:03.673Z,1035.22
2018-05-24T09:46:03.681Z,1035.3
2018-05-24T09:47:03.683Z,1035.28
2018-05-24T09:48:03.680Z,1035.34
2018-05-24T09:49:03.685Z,1035.28
2018-05-24T09:50:03.683Z,1035.33
2018-05-24T09:51:03.690Z,1035.37
2018-05-24T09:52:03.689Z,1035.29
2018-05-24T09:53:03.691Z,1035.18
2018-05-24T09:54:03.697Z,1035.3
2018-05-24T09:55:03.703Z,1035.3
2018-05-24T09:56:03.709Z,1035.3
2018-05-24T09:57:03.700Z,1035.28
2018-05-24T09:58:03.712Z,1035.3
2018-05-24T09:59:03.711Z,1035.29
2018-05-24T10:00:03.713Z,1035.3
2018-05-24T10:01:03.714Z,1035.33
2018-05-24T10:02:03.715Z,1035.37
2018-05-24T10:03:03.726Z,1035.3
2018-05-24T10:04:03.725Z,1035.15
2018-05-24T10:05:03.726Z,1035.27
2018-05-24T10:06:03.722Z,1035.11
2018-05-24T10:07:03.730Z,1035.07
2018-05-24T10:08:03.727Z,1035.06
2018-05-24T10:09:03.731Z,1035.15
2018-05-24T10:10:03.732Z,1035.09
2018-05-24T10:11:03.739Z,1035.14
2018-05-24T10:12:03.742Z,1035
2018-05-24T10:13:03.989Z,1034.96
2018-05-24T10:14:03.741Z,1035.06
2018-05-24T10:15:16.476Z,1035.24
2018-05-24T10:17:03.749Z,1035.29
2018-05-24T10:18:03.755Z,1035.45
2018-05-24T10:19:03.757Z,1035.48
2018-05-24T10:20:03.769Z,1035.38
2018-05-24T10:21:03.757Z,1035.29
2018-05-24T10:22:03.758Z,1035.19
2018-05-24T10:23:03.766Z,1035.37
2018-05-24T10:24:03.764Z,1035.32
2018-05-24T10:25:03.765Z,1035.26
2018-05-24T10:26:03.772Z,1035.12
2018-05-24T10:27:03.770Z,1035.06
2018-05-24T10:28:03.777Z,1035.05
2018-05-24T10:29:03.773Z,1034.89
2018-05-24T10:30:03.781Z,1034.89
2018-05-24T10:31:03.778Z,1035.05
2018-05-24T10:32:03.787Z,1035.16
2018-05-24T10:33:03.781Z,1035.07
2018-05-24T10:34:03.789Z,1035.14
2018-05-24T10:35:03.790Z,1035.2
2018-05-24T10:36:03.786Z,1035.18
2018-05-24T10:37:03.789Z,1035.17
2018-05-24T10:38:03.813Z,1035.13
2018-05-24T10:39:03.799Z,1035.16
2018-05-24T10:40:03.824Z,1035.22
2018-05-24T10:41:03.810Z,1035.32
2018-05-24T10:42:03.799Z,1035.23
2018-05-24T10:43:03.806Z,1035.23
2018-05-24T10:44:03.803Z,1035.26
2018-05-24T10:45:03.810Z,1035.28
2018-05-24T10:46:03.806Z,1035.39
2018-05-24T10:47:03.812Z,1035.36
2018-05-24T10:48:03.814Z,1035.58
2018-05-24T10:49:03.891Z,1035.37
2018-05-24T10:50:03.813Z,1035.24
2018-05-24T10:51:03.845Z,1035.3
2018-05-24T10:52:03.816Z,1035.38
2018-05-24T10:53:03.817Z,1035.35
2018-05-24T10:54:03.857Z,1035.27
2018-05-24T10:55:03.826Z,1035.3
2018-05-24T10:56:03.840Z,1035.22
2018-05-24T10:57:03.831Z,1035.26
2018-05-24T10:58:03.824Z,1035.13
2018-05-24T10:59:03.831Z,1035.12
2018-05-24T11:00:03.831Z,1035.15
2018-05-24T11:01:03.834Z,1035.21
2018-05-24T11:02:03.829Z,1035.07
2018-05-24T11:03:03.873Z,1035.09
2018-05-24T11:04:03.838Z,1035.21
2018-05-24T11:05:03.842Z,1035.14
2018-05-24T11:06:03.844Z,1035.2
2018-05-24T11:07:03.837Z,1035.3
2018-05-24T11:08:03.844Z,1035.21
2018-05-24T11:09:03.844Z,1035.12
2018-05-24T11:10:03.846Z,1035.18
2018-05-24T11:11:03.842Z,1035.24
2018-05-24T11:12:03.850Z,1035.17
2018-05-24T11:13:03.845Z,1035.11
2018-05-24T11:14:03.852Z,1035.17
2018-05-24T11:15:03.849Z,1035.18
2018-05-24T11:16:03.854Z,1035.08
2018-05-24T11:17:03.867Z,1035.15
2018-05-24T11:18:03.853Z,1035.04
2018-05-24T11:19:03.858Z,1035.12
2018-05-24T11:20:03.863Z,1035.08
2018-05-24T11:21:03.859Z,1035.14
2018-05-24T11:22:03.860Z,1035.09
2018-05-24T11:23:03.858Z,1035.11
2018-05-24T11:24:03.863Z,1034.97
2018-05-24T11:25:03.907Z,1034.98
2018-05-24T11:26:03.876Z,1035.09
2018-05-24T11:27:03.867Z,1034.91
2018-05-24T11:28:03.869Z,1034.94
2018-05-24T11:29:03.865Z,1034.99
2018-05-24T11:30:03.873Z,1034.93
2018-05-24T11:31:03.873Z,1034.85
2018-05-24T11:32:03.927Z,1034.8
2018-05-24T11:33:03.890Z,1034.78
2018-05-24T11:34:03.877Z,1034.81
2018-05-24T11:35:03.871Z,1034.71
2018-05-24T11:36:03.872Z,1034.72
2018-05-24T11:37:03.961Z,1034.74
2018-05-24T11:38:03.881Z,1034.62
2018-05-24T11:39:03.881Z,1034.59
2018-05-24T11:40:03.878Z,1034.53
2018-05-24T11:41:03.878Z,1034.56
2018-05-24T11:42:03.884Z,1034.46
2018-05-24T11:43:03.905Z,1034.49
2018-05-24T11:44:03.889Z,1034.47
2018-05-24T11:45:03.884Z,1034.45
2018-05-24T11:46:03.889Z,1034.48
2018-05-24T11:47:03.891Z,1034.45
2018-05-24T11:48:03.905Z,1034.5
2018-05-24T11:49:03.894Z,1034.75
2018-05-24T11:50:03.897Z,1034.61
2018-05-24T11:51:03.891Z,1034.58
2018-05-24T11:52:04.010Z,1034.48
2018-05-24T11:53:03.896Z,1034.57
2018-05-24T11:54:03.913Z,1034.47
2018-05-24T11:55:03.902Z,1034.47
2018-05-24T11:56:03.897Z,1034.6
2018-05-24T11:57:03.969Z,1034.59
2018-05-24T11:58:03.916Z,1034.54
2018-05-24T11:59:03.914Z,1034.39
2018-05-24T12:00:03.903Z,1034.33
2018-05-24T12:01:03.917Z,1034.47
2018-05-24T12:02:03.906Z,1034.3
2018-05-24T12:03:03.912Z,1034.27
2018-05-24T12:04:03.908Z,1034.25
2018-05-24T12:05:03.915Z,1034.43
2018-05-24T12:06:03.912Z,1034.16
2018-05-24T12:07:03.977Z,1034.27
2018-05-24T12:08:03.913Z,1034.13
2018-05-24T12:09:03.917Z,1034.3
2018-05-24T12:10:03.922Z,1034.22
2018-05-24T12:11:03.921Z,1034.2
2018-05-24T12:12:03.919Z,1034.18